Time;durP1;ratioP1;P1;durP2;ratioP2;P2;SDS_P1;SDS_P2;PMS_P1;PMS_P2;Temp;Humidity;BMP_temperature;BMP_pressure;BME280_temperature;BME280_humidity;BME280_pressure;Samples;Min_cycle;Max_cycle;Signal;HPM_P1;HPM_P2
2022/11/22 00:01:56;;;;;;;31.90;9.43;;;;;;;2.13;97.24;96122.81;5006230;28;20043;-53
2022/11/22 00:04:21;;;;;;;32.55;9.43;;;;;;;2.16;97.15;96117.66;5005744;28;20022;-53
2022/11/22 00:06:46;;;;;;;41.72;10.27;;;;;;;2.16;97.05;96104.84;5008378;28;20056;-54
2022/11/22 00:09:11;;;;;;;29.67;9.65;;;;;;;2.16;97.12;96106.56;5007880;28;20368;-54
2022/11/22 00:11:37;;;;;;;41.67;10.48;;;;;;;2.17;97.27;96096.31;5006889;28;20037;-54
2022/11/22 00:14:02;;;;;;;29.75;9.80;;;;;;;2.26;97.14;96090.31;5007821;28;20045;-54
2022/11/22 00:16:27;;;;;;;33.75;10.07;;;;;;;2.25;97.38;96083.47;5006318;28;20026;-54
2022/11/22 00:18:53;;;;;;;39.50;10.13;;;;;;;2.21;97.19;96074.06;5008721;28;20065;-55
2022/11/22 00:21:18;;;;;;;35.72;10.00;;;;;;;2.24;97.29;96070.66;5007100;28;20046;-57
2022/11/22 00:23:44;;;;;;;37.05;10.40;;;;;;;2.23;97.36;96072.38;5008924;28;20025;-57
2022/11/22 00:26:10;;;;;;;41.97;10.43;;;;;;;2.28;97.43;96072.34;5007395;28;20041;-57
2022/11/22 00:28:39;;;;;;;34.40;9.43;;;;;;;2.28;97.78;96078.34;5009490;28;20075;-54
2022/11/22 00:31:05;;;;;;;38.25;10.45;;;;;;;2.36;97.58;96070.63;5008626;28;20037;-54
2022/11/22 00:33:30;;;;;;;38.53;11.25;;;;;;;2.36;97.53;96055.22;5007285;28;20029;-53
2022/11/22 00:35:55;;;;;;;34.78;10.15;;;;;;;2.13;98.12;96055.25;5009172;28;20038;-54
2022/11/22 00:38:21;;;;;;;29.52;9.52;;;;;;;2.17;98.42;96055.28;5005149;28;20083;-54
2022/11/22 00:40:46;;;;;;;36.33;10.43;;;;;;;2.25;98.01;96047.56;5005344;28;20048;-55
2022/11/22 00:43:11;;;;;;;42.83;10.55;;;;;;;2.31;97.77;96054.41;5006732;28;20109;-55
2022/11/22 00:45:39;;;;;;;37.25;10.30;;;;;;;2.31;98.04;96057.78;5007702;28;20029;-57
2022/11/22 00:48:05;;;;;;;40.45;9.95;;;;;;;2.38;97.92;96062.94;5007508;28;20048;-54
2022/11/22 00:50:30;;;;;;;35.22;9.60;;;;;;;2.41;97.74;96068.91;5009098;28;20072;-54
2022/11/22 00:52:55;;;;;;;40.08;10.48;;;;;;;2.45;97.61;96064.63;5008958;28;20030;-55
2022/11/22 00:55:21;;;;;;;33.42;9.38;;;;;;;2.44;97.45;96074.03;5003658;28;20041;-54
2022/11/22 00:57:46;;;;;;;30.98;9.13;;;;;;;2.49;97.39;96057.78;5008637;28;20551;-54
2022/11/22 01:00:12;;;;;;;45.35;10.90;;;;;;;2.47;97.25;96062.91;5005433;28;20040;-57
2022/11/22 01:02:37;;;;;;;36.80;8.93;;;;;;;2.43;97.09;96074.91;5006209;28;20614;-54
2022/11/22 01:05:03;;;;;;;32.40;8.85;;;;;;;2.35;97.44;96053.53;5008322;28;20026;-54
2022/11/22 01:07:28;;;;;;;46.05;12.13;;;;;;;2.20;97.89;96046.72;5006880;28;20046;-53
2022/11/22 01:09:53;;;;;;;36.45;10.20;;;;;;;2.27;97.78;96057.81;5007307;28;20031;-54
2022/11/22 01:12:19;;;;;;;33.28;9.13;;;;;;;2.30;97.45;96060.38;5007557;28;20881;-56
2022/11/22 01:14:44;;;;;;;28.33;8.38;;;;;;;2.25;97.21;96051.81;5006327;28;20038;-54
2022/11/22 01:17:09;;;;;;;31.08;10.35;;;;;;;2.16;97.76;96045.84;5005421;28;20034;-54
2022/11/22 01:19:34;;;;;;;38.40;9.70;;;;;;;2.18;97.71;96056.09;5007810;28;20120;-55
2022/11/22 01:22:00;;;;;;;37.83;10.10;;;;;;;2.16;97.77;96057.84;5010970;28;20031;-55
2022/11/22 01:24:25;;;;;;;36.35;9.32;;;;;;;2.16;97.54;96052.72;5011400;28;20034;-54
2022/11/22 01:26:51;;;;;;;30.67;10.57;;;;;;;2.15;97.94;96036.47;5009366;28;20039;-54
2022/11/22 01:29:16;;;;;;;35.47;9.50;;;;;;;2.24;97.96;96045.84;5013067;28;20589;-54
2022/11/22 01:31:41;;;;;;;43.80;10.57;;;;;;;2.31;98.23;96039.84;5009611;28;20042;-55
2022/11/22 01:34:06;;;;;;;29.42;9.35;;;;;;;2.40;97.82;96038.97;5010197;28;20029;-57
2022/11/22 01:36:32;;;;;;;28.42;8.80;;;;;;;2.44;97.93;96040.69;5010575;28;20038;-54
2022/11/22 01:38:57;;;;;;;27.85;8.57;;;;;;;2.52;97.71;96039.81;5009099;28;20021;-53
2022/11/22 01:41:22;;;;;;;20.35;5.35;;;;;;;2.45;98.00;96038.97;5009384;28;20130;-54
2022/11/22 01:43:48;;;;;;;31.90;8.77;;;;;;;2.53;98.11;96032.09;5009538;28;20096;-54
2022/11/22 01:46:36;;;;;;;23.17;8.13;;;;;;;2.55;98.06;96032.09;5010627;28;20057;-54
2022/11/22 01:49:12;;;;;;;34.63;8.40;;;;;;;2.64;98.13;96036.34;5011181;28;20454;-57
2022/11/22 01:51:41;;;;;;;33.15;8.05;;;;;;;2.66;97.98;96032.91;5009822;28;20041;-57
2022/11/22 01:54:14;;;;;;;26.38;7.78;;;;;;;2.75;98.36;96026.03;5013029;28;20112;-55
2022/11/22 01:56:45;;;;;;;22.92;7.68;;;;;;;2.70;98.02;96029.47;5010617;28;20041;-54
2022/11/22 01:59:15;;;;;;;28.63;8.45;;;;;;;2.78;98.05;96026.03;5009144;28;20076;-55
2022/11/22 02:01:41;;;;;;;27.48;7.60;;;;;;;2.81;98.16;96031.13;5008826;28;20613;-54
2022/11/22 02:04:10;;;;;;;33.55;8.18;;;;;;;2.69;98.07;96032.91;5011808;28;20029;-55
2022/11/22 02:06:44;;;;;;;27.15;6.95;;;;;;;2.69;98.28;96026.91;5009273;28;20029;-54
2022/11/22 02:09:11;;;;;;;31.63;8.32;;;;;;;2.71;98.33;96026.03;5010239;28;20037;-54
2022/11/22 02:11:42;;;;;;;28.00;6.47;;;;;;;2.62;98.63;96020.94;5010001;28;20208;-55
2022/11/22 02:14:08;;;;;;;23.23;6.43;;;;;;;2.71;98.57;96028.59;5008705;28;20025;-54
2022/11/22 02:16:34;;;;;;;22.67;6.78;;;;;;;2.86;98.50;96021.72;5007592;28;20800;-55
2022/11/22 02:19:00;;;;;;;22.38;6.80;;;;;;;2.79;98.28;96014.91;5010882;28;20139;-55
2022/11/22 02:21:27;;;;;;;23.98;6.72;;;;;;;2.88;98.01;96006.28;5009393;28;20137;-57
2022/11/22 02:24:00;;;;;;;24.95;6.82;;;;;;;2.93;97.94;95984.84;5009238;28;20029;-54
2022/11/22 02:26:27;;;;;;;25.10;6.85;;;;;;;2.95;97.68;95985.72;5008930;28;20038;-54
2022/11/22 02:28:59;;;;;;;26.40;7.05;;;;;;;2.94;97.52;95990.88;5009337;28;20025;-56
2022/11/22 02:31:34;;;;;;;30.30;8.20;;;;;;;3.00;97.14;95995.94;5008752;28;20045;-56
2022/11/22 02:33:59;;;;;;;26.52;7.03;;;;;;;2.99;97.16;95995.13;5011189;28;20083;-55
2022/11/22 02:36:25;;;;;;;24.58;7.10;;;;;;;2.99;97.13;95997.69;5008839;28;20038;-58
2022/11/22 02:38:50;;;;;;;19.50;6.47;;;;;;;3.06;97.30;95998.50;5010126;28;20392;-55
2022/11/22 02:41:16;;;;;;;20.90;6.63;;;;;;;3.06;97.23;95995.06;5009563;28;20087;-54
2022/11/22 02:43:46;;;;;;;26.88;7.10;;;;;;;3.12;97.21;96010.47;5009608;28;20021;-53
2022/11/22 02:46:19;;;;;;;25.23;7.03;;;;;;;3.17;97.11;96011.28;5008639;28;20869;-56
2022/11/22 02:48:45;;;;;;;29.55;7.70;;;;;;;3.22;96.93;96016.38;5012071;28;20032;-54
2022/11/22 02:51:15;;;;;;;26.80;7.05;;;;;;;3.20;97.21;96025.81;5009385;28;20046;-54
2022/11/22 02:53:43;;;;;;;28.45;7.25;;;;;;;3.25;97.07;96044.63;5008427;28;20068;-57
2022/11/22 02:56:09;;;;;;;21.27;6.38;;;;;;;3.42;97.58;96041.09;5007200;28;20049;-54
2022/11/22 02:58:34;;;;;;;21.77;5.90;;;;;;;3.42;97.58;96048.81;5008399;28;20410;-54
2022/11/22 03:00:59;;;;;;;26.55;7.07;;;;;;;3.57;97.74;96045.28;5010161;28;20535;-53
2022/11/22 03:03:25;;;;;;;29.23;7.35;;;;;;;3.62;97.50;96046.09;5009368;28;20017;-53
2022/11/22 03:05:50;;;;;;;25.30;6.60;;;;;;;3.65;97.43;96040.94;5007648;28;20034;-56
2022/11/22 03:08:15;;;;;;;23.80;6.95;;;;;;;3.55;97.42;96036.72;5009898;28;20124;-54
2022/11/22 03:10:41;;;;;;;21.70;6.30;;;;;;;3.49;97.66;96035.06;5011173;28;20029;-54
2022/11/22 03:13:06;;;;;;;25.80;6.68;;;;;;;3.48;97.55;96044.47;5009409;28;20021;-57
2022/11/22 03:15:31;;;;;;;18.70;5.70;;;;;;;3.37;97.39;96043.69;5009574;28;20124;-54
2022/11/22 03:17:58;;;;;;;28.52;6.97;;;;;;;3.41;97.37;96047.94;5011326;28;20138;-55
2022/11/22 03:20:24;;;;;;;21.67;7.03;;;;;;;3.59;97.14;96043.53;5009291;28;20141;-57
2022/11/22 03:22:49;;;;;;;24.85;6.80;;;;;;;3.67;97.32;96036.63;5007728;28;20032;-55
2022/11/22 03:25:15;;;;;;;19.27;5.45;;;;;;;3.52;96.76;96035.03;5007896;28;21059;-55
2022/11/22 03:27:40;;;;;;;22.17;6.32;;;;;;;3.62;96.90;96046.09;5006661;28;20037;-57
2022/11/22 03:30:06;;;;;;;26.42;7.00;;;;;;;3.74;96.81;96051.16;5010092;28;20036;-54
2022/11/22 03:32:31;;;;;;;24.88;6.75;;;;;;;3.78;96.70;96062.25;5007968;28;20518;-55
2022/11/22 03:34:57;;;;;;;22.60;6.68;;;;;;;3.81;96.93;96058.81;5007871;28;20033;-55
2022/11/22 03:37:22;;;;;;;22.35;6.07;;;;;;;3.68;96.69;96053.78;5009323;28;20049;-54
2022/11/22 03:39:47;;;;;;;28.10;6.97;;;;;;;3.75;96.03;96060.56;5009075;28;20022;-54
2022/11/22 03:42:13;;;;;;;23.65;7.00;;;;;;;3.90;96.21;96051.06;5007579;28;20065;-54
2022/11/22 03:44:38;;;;;;;20.08;5.90;;;;;;;3.95;96.26;96054.44;5007730;28;20037;-55
2022/11/22 03:47:03;;;;;;;21.90;6.82;;;;;;;3.85;94.97;96058.78;5006723;28;20127;-54
2022/11/22 03:49:29;;;;;;;28.30;7.30;;;;;;;3.86;95.30;96052.78;5007120;28;20186;-55
2022/11/22 03:51:54;;;;;;;22.30;6.55;;;;;;;3.90;95.27;96061.34;5006679;28;20115;-55
2022/11/22 03:54:19;;;;;;;23.45;6.85;;;;;;;3.92;95.31;96051.88;5008003;28;20022;-56
2022/11/22 03:56:45;;;;;;;22.50;6.68;;;;;;;4.01;95.28;96054.38;5008372;28;20129;-55
2022/11/22 03:59:10;;;;;;;24.60;6.88;;;;;;;4.02;94.71;96061.22;5007172;28;20025;-57
2022/11/22 04:01:35;;;;;;;27.13;7.53;;;;;;;4.02;94.67;96056.06;5005791;28;20050;-56
2022/11/22 04:04:00;;;;;;;23.65;6.78;;;;;;;4.04;94.22;96059.50;5007876;28;20038;-58
2022/11/22 04:06:26;;;;;;;21.85;6.50;;;;;;;4.04;93.37;96064.63;5006719;28;20088;-56
2022/11/22 04:08:51;;;;;;;20.38;6.65;;;;;;;3.94;94.37;96069.88;5004690;28;20057;-57
2022/11/22 04:11:17;;;;;;;25.13;6.90;;;;;;;4.06;93.59;96074.06;5007834;28;20042;-54
2022/11/22 04:16:26;;;;;;;27.67;7.32;;;;;;;4.05;93.36;96073.22;5005841;28;20447;-55
2022/11/22 04:18:51;;;;;;;29.35;7.53;;;;;;;4.10;93.44;96068.88;5008135;28;20708;-54
2022/11/22 04:21:35;;;;;;;23.05;6.97;;;;;;;4.15;93.59;96079.97;5006119;28;20489;-55
2022/11/22 04:26:50;;;;;;;26.40;7.03;;;;;;;4.26;92.89;96084.16;5005130;28;20075;-56
2022/11/22 04:29:16;;;;;;;20.10;6.82;;;;;;;4.38;92.90;96089.19;5006599;28;20025;-55
2022/11/22 04:34:26;;;;;;;22.80;7.00;;;;;;;4.21;91.42;96091.94;5006023;28;20131;-55
2022/11/22 04:36:51;;;;;;;24.30;6.53;;;;;;;4.25;92.07;96085.03;5008273;28;20132;-54
2022/11/22 04:39:17;;;;;;;22.88;6.43;;;;;;;4.40;91.73;96089.19;5009222;28;20052;-54
2022/11/22 04:41:42;;;;;;;23.48;6.68;;;;;;;4.47;91.16;96092.56;5010354;28;20049;-56
2022/11/22 04:46:56;;;;;;;22.40;6.57;;;;;;;4.55;91.25;96096.78;5004879;28;20048;-56
2022/11/22 04:49:21;;;;;;;19.05;6.53;;;;;;;4.58;91.48;96095.03;5006229;28;20088;-55
2022/11/22 04:54:30;;;;;;;21.13;5.93;;;;;;;-148.24;100.00;61531.34;5005336;28;20041;-54
2022/11/22 04:56:57;;;;;;;27.27;6.75;;;;;;;-148.24;100.00;61531.34;5004248;28;20041;-58
2022/11/22 04:59:22;;;;;;;26.83;6.70;;;;;;;-148.24;100.00;61531.34;5006096;28;20029;-57
2022/11/22 05:01:47;;;;;;;20.83;6.22;;;;;;;-148.24;100.00;61531.34;5006202;28;20033;-54
2022/11/22 05:04:12;;;;;;;25.58;6.90;;;;;;;-148.24;100.00;61531.34;5007531;28;20036;-54
2022/11/22 05:06:38;;;;;;;23.27;6.80;;;;;;;-148.24;100.00;61531.34;5007311;28;20030;-57
2022/11/22 05:09:04;;;;;;;23.17;6.28;;;;;;;-148.24;100.00;61531.34;5007500;28;20037;-55
2022/11/22 05:11:29;;;;;;;28.00;7.25;;;;;;;-148.24;100.00;61531.34;5010727;28;20100;-55
2022/11/22 05:13:54;;;;;;;24.38;6.10;;;;;;;-148.24;100.00;61531.34;5003910;28;20095;-54
2022/11/22 05:16:20;;;;;;;24.00;6.57;;;;;;;-148.24;100.00;61531.34;5007062;28;20144;-54
2022/11/22 05:18:57;;;;;;;20.35;6.40;;;;;;;-148.24;100.00;61531.34;5007181;28;20025;-56
2022/11/22 05:21:24;;;;;;;22.73;6.45;;;;;;;-148.24;100.00;61531.34;5006231;28;20048;-56
2022/11/22 05:23:53;;;;;;;19.33;5.70;;;;;;;-148.24;100.00;61531.34;5006332;28;20022;-57
2022/11/22 05:26:29;;;;;;;21.65;5.97;;;;;;;-148.24;100.00;61531.34;5004999;28;20086;-55
2022/11/22 05:28:58;;;;;;;23.33;6.70;;;;;;;-148.24;100.00;61531.34;5006097;28;20064;-55
2022/11/22 05:31:26;;;;;;;24.58;6.28;;;;;;;-148.24;100.00;61531.34;5006095;28;20042;-55
2022/11/22 05:33:53;;;;;;;23.73;6.78;;;;;;;-148.24;100.00;61531.34;5005002;28;20506;-57
2022/11/22 05:36:19;;;;;;;22.52;6.63;;;;;;;-148.24;100.00;61531.34;5004196;28;20611;-54
2022/11/22 05:38:45;;;;;;;26.02;6.38;;;;;;;-148.24;100.00;61531.34;5005907;28;20029;-54
2022/11/22 05:41:13;;;;;;;24.05;6.72;;;;;;;-148.24;100.00;61531.34;5007231;28;20038;-55
2022/11/22 05:43:39;;;;;;;23.65;6.65;;;;;;;-148.24;100.00;61531.34;5006292;28;20042;-54
2022/11/22 05:46:05;;;;;;;23.23;6.68;;;;;;;-148.24;100.00;61531.34;5006588;28;20150;-57
2022/11/22 05:48:30;;;;;;;22.70;6.55;;;;;;;-148.24;100.00;61531.34;5008823;28;20095;-54
2022/11/22 05:50:55;;;;;;;31.02;7.40;;;;;;;-148.24;100.00;61531.34;5004880;28;20084;-53
2022/11/22 05:53:21;;;;;;;27.00;6.88;;;;;;;-148.24;100.00;61531.34;5006770;28;20140;-52
2022/11/22 05:55:46;;;;;;;23.80;5.93;;;;;;;-148.24;100.00;61531.34;5006013;28;20674;-55
2022/11/22 05:58:11;;;;;;;24.17;6.63;;;;;;;-148.24;100.00;61531.34;5006430;28;20701;-53
2022/11/22 06:00:37;;;;;;;25.00;6.50;;;;;;;-148.24;100.00;61531.34;5005662;28;20040;-54
2022/11/22 06:03:03;;;;;;;25.95;6.53;;;;;;;-148.24;100.00;61531.34;5004822;28;20018;-53
2022/11/22 06:05:29;;;;;;;22.02;6.07;;;;;;;-148.24;100.00;61531.34;5006105;28;20044;-54
2022/11/22 06:08:01;;;;;;;20.30;6.78;;;;;;;-148.24;100.00;61531.34;5012597;28;20033;-54
2022/11/22 06:10:27;;;;;;;19.35;6.32;;;;;;;-148.24;100.00;61531.34;5006705;28;20030;-53
2022/11/22 06:12:53;;;;;;;24.58;6.75;;;;;;;-148.24;100.00;61531.34;5010338;28;20675;-53
2022/11/22 06:15:18;;;;;;;27.15;6.30;;;;;;;-148.24;100.00;61531.34;5008603;28;20175;-55
2022/11/22 06:17:43;;;;;;;27.55;6.70;;;;;;;-148.24;100.00;61531.34;5009058;28;20041;-54
2022/11/22 06:20:09;;;;;;;24.65;6.30;;;;;;;-148.24;100.00;61531.34;5010265;28;20207;-56
2022/11/22 06:22:34;;;;;;;21.02;6.10;;;;;;;-148.24;100.00;61531.34;5011129;28;20485;-54
2022/11/22 06:25:00;;;;;;;21.85;7.68;;;;;;;-148.24;100.00;61531.34;5006438;28;20022;-55
2022/11/22 06:27:25;;;;;;;28.63;7.85;;;;;;;-148.24;100.00;61531.34;5006304;28;20044;-54
2022/11/22 06:29:50;;;;;;;24.58;6.90;;;;;;;-148.24;100.00;61531.34;5008692;28;20984;-53
2022/11/22 06:32:16;;;;;;;22.75;6.45;;;;;;;-148.24;100.00;61531.34;5009567;28;20392;-53
2022/11/22 06:34:41;;;;;;;22.77;6.03;;;;;;;-148.24;100.00;61531.34;5008382;28;20691;-53
2022/11/22 06:37:06;;;;;;;21.42;6.05;;;;;;;-148.24;100.00;61531.34;5008693;28;20051;-52
2022/11/22 06:39:32;;;;;;;23.40;6.32;;;;;;;-148.24;100.00;61531.34;5009313;28;20026;-53
2022/11/22 06:41:57;;;;;;;20.42;6.00;;;;;;;-148.24;100.00;61531.34;5008456;28;20030;-53
2022/11/22 06:44:22;;;;;;;26.40;6.10;;;;;;;-148.24;100.00;61531.34;5010392;28;20602;-53
2022/11/22 06:46:48;;;;;;;26.85;6.05;;;;;;;-148.24;100.00;61531.34;5008512;28;20041;-53
2022/11/22 06:49:13;;;;;;;20.55;6.20;;;;;;;-148.24;100.00;61531.34;5009748;28;20033;-53
2022/11/22 06:51:39;;;;;;;24.05;6.85;;;;;;;-148.24;100.00;61531.34;5007676;28;20088;-53
2022/11/22 06:54:04;;;;;;;23.83;6.75;;;;;;;-148.24;100.00;61531.34;5008373;28;20036;-56
2022/11/22 06:56:35;;;;;;;17.60;5.57;;;;;;;-148.24;100.00;61531.34;5011858;28;20029;-57
2022/11/22 06:59:05;;;;;;;21.55;6.35;;;;;;;-148.24;100.00;61531.34;5009659;28;20044;-53
2022/11/22 07:01:31;;;;;;;22.45;6.95;;;;;;;-148.24;100.00;61531.34;5008114;28;20050;-56
2022/11/22 07:03:58;;;;;;;22.58;6.80;;;;;;;-148.24;100.00;61531.34;5008064;28;20051;-52
2022/11/22 07:06:32;;;;;;;21.15;6.75;;;;;;;-148.24;100.00;61531.34;5008916;28;20045;-54
2022/11/22 07:08:59;;;;;;;26.60;7.28;;;;;;;-148.24;100.00;61531.34;5009202;28;20033;-54
2022/11/22 07:11:27;;;;;;;24.35;7.07;;;;;;;-148.24;100.00;61531.34;5006422;28;20034;-53
2022/11/22 07:13:54;;;;;;;31.23;7.65;;;;;;;-148.24;100.00;61531.34;5026294;28;20626;-53
2022/11/22 07:16:20;;;;;;;21.63;6.53;;;;;;;-148.24;100.00;61531.34;5009924;28;20128;-56
2022/11/22 07:18:46;;;;;;;23.20;6.45;;;;;;;-148.24;100.00;61531.34;5008065;28;20087;-53
2022/11/22 07:21:20;;;;;;;22.52;6.45;;;;;;;-148.24;100.00;61531.34;5007283;28;20052;-53
2022/11/22 07:23:48;;;;;;;22.27;6.10;;;;;;;-148.24;100.00;61531.34;5006749;28;20112;-55
2022/11/22 07:26:15;;;;;;;16.83;5.28;;;;;;;-148.24;100.00;61531.34;5008936;28;20892;-53
2022/11/22 07:28:41;;;;;;;19.05;5.90;;;;;;;-148.24;100.00;61531.34;5010254;28;20069;-54
2022/11/22 07:31:08;;;;;;;28.45;6.20;;;;;;;-148.24;100.00;61531.34;5008430;28;20388;-54
2022/11/22 07:33:34;;;;;;;19.40;6.00;;;;;;;-148.24;100.00;61531.34;5009606;28;20664;-53
2022/11/22 07:36:15;;;;;;;22.13;6.43;;;;;;;-148.24;100.00;61531.34;5006572;28;20112;-54
2022/11/22 07:38:41;;;;;;;19.53;5.87;;;;;;;-148.24;100.00;61531.34;5007522;28;20038;-54
2022/11/22 07:41:07;;;;;;;20.27;6.15;;;;;;;-148.24;100.00;61531.34;5005947;28;20104;-54
2022/11/22 07:43:33;;;;;;;22.02;6.07;;;;;;;-148.24;100.00;61531.34;5006340;28;20025;-54
2022/11/22 07:46:03;;;;;;;18.75;5.55;;;;;;;-148.24;100.00;61531.34;5008569;28;20041;-53
2022/11/22 07:48:29;;;;;;;27.00;7.28;;;;;;;-148.24;100.00;61531.34;5008051;28;20156;-54
2022/11/22 07:50:54;;;;;;;21.70;6.82;;;;;;;-148.24;100.00;61531.34;5007612;28;20511;-55
2022/11/22 07:53:19;;;;;;;23.98;7.97;;;;;;;-148.24;100.00;61531.34;5008822;28;20601;-55
2022/11/22 07:55:45;;;;;;;22.90;7.53;;;;;;;-148.24;100.00;61531.34;5006321;28;20356;-54
2022/11/22 07:58:10;;;;;;;22.52;7.88;;;;;;;-148.24;100.00;61531.34;5009386;28;20021;-53
2022/11/22 08:00:36;;;;;;;29.80;9.68;;;;;;;-148.24;100.00;61531.34;5006557;28;20037;-53
2022/11/22 08:03:01;;;;;;;28.23;9.07;;;;;;;-148.24;100.00;61531.34;5007147;28;20033;-54
2022/11/22 08:05:26;;;;;;;25.33;8.20;;;;;;;-148.24;100.00;61531.34;5005538;28;20044;-54
2022/11/22 08:07:53;;;;;;;20.60;7.43;;;;;;;-148.24;100.00;61531.34;5008051;28;20487;-54
2022/11/22 08:10:20;;;;;;;25.55;9.02;;;;;;;-148.24;100.00;61531.34;5005702;28;20029;-53
2022/11/22 08:12:46;;;;;;;29.70;9.80;;;;;;;-148.24;100.00;61531.34;5007225;28;20144;-54
2022/11/22 08:15:13;;;;;;;26.65;9.23;;;;;;;-148.24;100.00;61531.34;5006817;28;20601;-54
2022/11/22 08:17:39;;;;;;;24.33;8.43;;;;;;;-148.24;100.00;61531.34;5006387;28;20038;-57
2022/11/22 08:20:07;;;;;;;27.40;8.65;;;;;;;-148.24;100.00;61531.34;5006932;28;20084;-56
2022/11/22 08:22:33;;;;;;;23.25;7.50;;;;;;;-148.24;100.00;61531.34;5006188;28;20648;-54
2022/11/22 08:24:58;;;;;;;22.98;7.47;;;;;;;-148.24;100.00;61531.34;5005877;28;20030;-54
2022/11/22 08:27:24;;;;;;;23.70;7.53;;;;;;;-148.24;100.00;61531.34;5009677;28;20104;-54
2022/11/22 08:29:49;;;;;;;25.92;7.18;;;;;;;-148.24;100.00;61531.34;5007280;28;20029;-55
2022/11/22 08:32:14;;;;;;;16.60;6.07;;;;;;;-148.24;100.00;61531.34;5006870;28;20037;-55
2022/11/22 08:34:40;;;;;;;22.52;6.20;;;;;;;-148.24;100.00;61531.34;5007849;28;20033;-55
2022/11/22 08:37:06;;;;;;;24.08;6.47;;;;;;;-148.24;100.00;61531.34;5007092;28;20136;-55
2022/11/22 08:39:31;;;;;;;20.58;5.82;;;;;;;-148.24;100.00;61531.34;5006729;28;20029;-56
2022/11/22 08:41:56;;;;;;;19.60;5.97;;;;;;;-148.24;100.00;61531.34;5006914;28;20045;-55
2022/11/22 08:44:22;;;;;;;19.00;5.47;;;;;;;4.58;91.48;96095.03;5007657;28;20079;-55
2022/11/22 08:46:47;;;;;;;15.45;5.07;;;;;;;8.45;84.33;96266.19;5006172;28;20135;-54
2022/11/22 08:49:13;;;;;;;25.52;6.50;;;;;;;8.84;82.67;96267.88;5006112;28;20140;-55
2022/11/22 08:51:43;;;;;;;21.25;5.78;;;;;;;9.17;82.00;96269.69;5005251;28;20045;-55
2022/11/22 08:54:13;;;;;;;19.20;5.65;;;;;;;9.38;81.79;96270.03;5007319;28;20040;-54
2022/11/22 08:56:38;;;;;;;17.33;6.05;;;;;;;9.82;81.12;96264.53;5005674;28;20732;-54
2022/11/22 08:59:04;;;;;;;15.10;5.07;;;;;;;9.85;79.88;96266.19;5004815;28;20025;-57
2022/11/22 09:01:29;;;;;;;17.75;5.55;;;;;;;10.13;78.47;96271.44;5004889;28;20033;-57
2022/11/22 09:03:54;;;;;;;23.30;5.63;;;;;;;10.54;77.61;96265.91;5008108;28;20517;-54
2022/11/22 09:06:20;;;;;;;14.98;5.50;;;;;;;10.84;77.51;96266.75;5007807;28;20603;-54
2022/11/22 09:08:46;;;;;;;25.75;6.15;;;;;;;10.63;76.53;96263.94;5006821;28;20036;-55
2022/11/22 09:11:17;;;;;;;16.55;4.65;;;;;;;10.55;75.46;96267.59;5007486;28;20069;-54
2022/11/22 09:13:43;;;;;;;19.60;4.93;;;;;;;10.70;76.17;96272.38;5006212;28;20017;-54
2022/11/22 09:16:19;;;;;;;18.48;5.07;;;;;;;11.56;75.38;96273.03;5003818;28;20075;-55
2022/11/22 09:18:45;;;;;;;19.65;4.75;;;;;;;11.72;74.97;96269.00;5005899;28;20050;-57
2022/11/22 09:21:14;;;;;;;16.98;4.38;;;;;;;11.74;76.22;96278.50;5007425;28;20034;-55
2022/11/22 09:23:42;;;;;;;13.73;4.13;;;;;;;11.28;75.21;96271.41;5007244;28;20030;-54
2022/11/22 09:26:11;;;;;;;22.20;4.82;;;;;;;11.51;74.84;96283.59;5005230;28;20049;-54
2022/11/22 09:28:36;;;;;;;18.77;4.32;;;;;;;11.05;77.01;96294.66;5005585;28;20021;-56
2022/11/22 09:31:05;;;;;;;22.05;5.45;;;;;;;10.84;77.74;96295.34;5004237;28;20064;-56
2022/11/22 09:33:32;;;;;;;15.32;3.88;;;;;;;10.48;77.11;96299.91;5004187;28;20030;-55
2022/11/22 09:36:11;;;;;;;15.23;3.85;;;;;;;10.20;77.65;96315.44;5007287;28;20042;-54
2022/11/22 09:38:37;;;;;;;19.27;4.32;;;;;;;10.00;78.58;96306.44;5008761;28;20033;-54
2022/11/22 09:41:15;;;;;;;14.30;4.15;;;;;;;10.43;80.51;96301.72;5008335;28;20037;-55
2022/11/22 09:43:52;;;;;;;16.08;4.28;;;;;;;10.99;83.40;96297.44;5011036;28;20041;-55
2022/11/22 09:46:23;;;;;;;15.65;3.45;;;;;;;10.88;85.55;96295.19;5008950;28;20095;-58
2022/11/22 09:49:02;;;;;;;14.27;3.77;;;;;;;10.78;80.02;96302.47;5009564;28;20088;-55
2022/11/22 09:51:38;;;;;;;19.50;4.53;;;;;;;11.05;77.97;96297.25;5008936;28;20588;-56
2022/11/22 09:54:09;;;;;;;14.05;3.90;;;;;;;11.15;77.06;96299.56;5011802;28;20025;-58
2022/11/22 09:56:34;;;;;;;16.10;4.00;;;;;;;10.81;75.27;96304.09;5010256;28;20120;-54
2022/11/22 09:59:18;;;;;;;16.70;3.78;;;;;;;10.83;75.35;96298.88;5010708;28;20022;-54
2022/11/22 10:01:46;;;;;;;18.45;3.90;;;;;;;11.19;74.59;96304.63;5009302;28;20042;-55
2022/11/22 10:04:24;;;;;;;19.90;4.30;;;;;;;11.56;82.58;96296.47;5008204;28;20034;-54
2022/11/22 10:06:57;;;;;;;16.55;4.03;;;;;;;11.48;80.10;96296.75;5009964;28;20050;-55
2022/11/22 10:09:39;;;;;;;17.88;4.05;;;;;;;11.44;79.82;96295.16;5027704;28;20059;-55
2022/11/22 10:12:35;;;;;;;15.90;3.85;;;;;;;11.49;75.06;96300.19;5008516;28;20113;-55
2022/11/22 10:15:45;;;;;;;19.33;3.70;;;;;;;11.48;73.81;96303.69;5009761;28;20041;-55
2022/11/22 10:18:21;;;;;;;16.83;3.70;;;;;;;11.82;80.11;96313.78;5010837;28;20048;-56
2022/11/22 10:20:47;;;;;;;24.88;4.60;;;;;;;11.87;81.47;96310.19;5008771;28;20037;-56
2022/11/22 10:23:17;;;;;;;28.58;7.80;;;;;;;11.06;75.60;96311.97;5009415;28;20852;-59
2022/11/22 10:25:47;;;;;;;24.02;6.35;;;;;;;11.59;77.17;96317.19;5009268;28;20044;-54
2022/11/22 10:28:35;;;;;;;13.88;4.13;;;;;;;11.17;72.94;96322.03;5009552;28;20037;-54
2022/11/22 10:31:15;;;;;;;16.67;4.20;;;;;;;11.05;74.63;96323.28;5009110;28;20095;-56
2022/11/22 10:34:07;;;;;;;18.45;4.70;;;;;;;11.24;74.74;96330.47;5009784;28;20051;-55
2022/11/22 10:36:51;;;;;;;17.80;3.60;;;;;;;11.71;79.39;96326.34;5009507;28;20103;-57
2022/11/22 10:39:22;;;;;;;17.75;4.45;;;;;;;11.38;74.29;96324.81;5010606;28;20017;-54
2022/11/22 10:42:20;;;;;;;17.05;4.50;;;;;;;11.28;73.36;96326.03;5010614;28;20056;-54
2022/11/22 10:44:53;;;;;;;18.60;4.97;;;;;;;11.50;78.70;96326.16;5008670;28;20049;-54
2022/11/22 10:47:30;;;;;;;21.05;4.70;;;;;;;11.52;76.67;96328.72;5011983;28;20039;-57
2022/11/22 10:50:02;;;;;;;22.33;4.78;;;;;;;11.63;78.73;96325.75;5010047;28;20088;-55
2022/11/22 10:52:47;;;;;;;13.27;3.53;;;;;;;11.44;75.69;96326.38;5008585;28;20032;-55
2022/11/22 10:55:40;;;;;;;20.17;4.45;;;;;;;11.13;73.82;96328.22;5009359;28;20026;-55
2022/11/22 10:58:24;;;;;;;21.13;5.10;;;;;;;11.80;81.16;96327.78;5009369;28;20651;-56
2022/11/22 11:00:58;;;;;;;16.40;4.03;;;;;;;11.53;74.21;96336.47;5008325;28;20038;-55
2022/11/22 11:03:32;;;;;;;22.02;3.47;;;;;;;11.35;82.77;96340.53;5008405;28;20067;-58
2022/11/22 11:06:23;;;;;;;18.08;3.92;;;;;;;11.23;80.10;96334.00;5007255;28;20061;-54
2022/11/22 11:08:57;;;;;;;15.32;3.55;;;;;;;11.66;85.29;96333.47;5007090;28;20415;-55
2022/11/22 11:11:25;;;;;;;19.17;4.47;;;;;;;11.06;74.36;96331.91;5008851;28;20034;-55
2022/11/22 11:13:55;;;;;;;16.58;3.47;;;;;;;11.05;72.65;96338.88;5009048;28;20029;-54
2022/11/22 11:16:25;;;;;;;21.70;4.20;;;;;;;11.20;73.77;96339.28;5008507;28;20049;-54
2022/11/22 11:18:50;;;;;;;13.80;3.58;;;;;;;12.26;90.37;96351.38;5007943;28;20030;-56
2022/11/22 11:21:15;;;;;;;16.77;3.47;;;;;;;11.78;80.11;96343.47;5008794;28;20052;-57
2022/11/22 11:23:41;;;;;;;14.00;3.92;;;;;;;11.85;84.30;96341.47;5008316;28;20025;-58
2022/11/22 11:26:30;;;;;;;18.38;3.88;;;;;;;11.64;83.28;96338.72;5007330;28;20037;-58
2022/11/22 11:29:40;;;;;;;16.35;3.80;;;;;;;11.57;80.17;96338.06;5007873;28;20441;-55
2022/11/22 11:32:08;;;;;;;16.80;3.42;;;;;;;11.41;80.51;96335.16;5006840;28;20022;-55
2022/11/22 11:34:35;;;;;;;14.00;3.22;;;;;;;11.65;81.17;96336.97;5007627;28;20037;-54
2022/11/22 11:37:03;;;;;;;16.30;3.40;;;;;;;11.50;80.78;96331.38;5008661;28;20123;-54
2022/11/22 11:39:30;;;;;;;13.70;3.22;;;;;;;11.58;79.56;96331.97;5007166;28;20025;-54